Thunder radar more information blitzortung!


Radar de pluja more information rain snow radar


Visita la nostra xarxa de llocs de meteo:

Template documentation
and downloads

And another site



No particular awareness of the weather is required.    There are no Weather-warnings

Pagina Historial Weather Underground text

Diari Resum Juliol 6, 2017 Unitats:  Mètric    Imperial   Tant
« Previous Dia
SegĂźent Dia »
Diari Setmana Mensual Anual Personalitzada
  Maxima: Minima: Media:
Temperatura: -17.8 °C -7.4 °C -2.8 °C
Punt de rosada: -17.8 °C -11.2 °C -9.2 °C
Humitat: Humidity % 27 % 51 %
Wind Speed: 0 km/h 0 km/h 11.1 km/h
RĂ fegues de vent: 0 km/h - -
Vent:- - ESE
Pression baro: 0 hPa 34361.1 hPa -
Precipitacions: 0 mm    
Historical Graphs
 
 
Dades de taula per Juliol 6, 2017
Temps Temperatura Punt de rosada Pression baro Vent Wind Speed RĂ fegues de vent Humitat Rainfall Rate (Hourly)
-17.8 °C -17.8 °C 0 hPa Calm     Humidity % 0 mm
00:01 -5.9 °C -8.6 °C 34395 hPa SW 5.1 km/h 5.1 km/h 74 % 0 mm
00:05 -7.2 °C -9.7 °C 34361.1 hPa NE 5.1 km/h 10.3 km/h 75 % 0 mm
00:06 -6 °C -8.7 °C 34395 hPa Calm     74 % 0 mm
00:11 -6 °C -8.6 °C 34395 hPa NE 5.1 km/h   75 % 0 mm
00:15 -7.1 °C -9.8 °C 34361.1 hPa Calm   5.1 km/h 74 % 0 mm
00:25 -7.4 °C -9.8 °C 34361.1 hPa SSW 2.6 km/h 10.3 km/h 76 % 0 mm
00:35 -7.4 °C -9.8 °C 34395 hPa SW 7.7 km/h 7.7 km/h 76 % 0 mm
00:45 -7.4 °C -9.7 °C 34395 hPa Calm   7.7 km/h 77 % 0 mm
00:55 -7.3 °C -9.6 °C 34395 hPa NW 5.1 km/h 7.7 km/h 77 % 0 mm
01:05 -7.3 °C -9.7 °C 34361.1 hPa Calm   5.1 km/h 76 % 0 mm
01:15 -7.3 °C -9.6 °C 34361.1 hPa North 2.6 km/h 7.7 km/h 77 % 0 mm
01:25 -7.4 °C -9.7 °C 34361.1 hPa WNW 2.6 km/h 5.1 km/h 77 % 0 mm
01:35 -7.3 °C -9.6 °C 34361.1 hPa SSW 5.1 km/h 5.1 km/h 77 % 0 mm
01:45 -7.2 °C -10.1 °C 34361.1 hPa NE 7.7 km/h 10.3 km/h 72 % 0 mm
01:55 -7.3 °C -9.8 °C 34361.1 hPa NNE 7.7 km/h 10.3 km/h 75 % 0 mm
02:05 -7.3 °C -9.8 °C 34361.1 hPa West 2.6 km/h 5.1 km/h 75 % 0 mm
02:15 -7.3 °C -9.8 °C 34395 hPa SW 5.1 km/h 10.3 km/h 75 % 0 mm
02:25 -7.2 °C -9.7 °C 34395 hPa SW 5.1 km/h 7.7 km/h 75 % 0 mm
02:35 -7.1 °C -9.6 °C 34395 hPa Calm   5.1 km/h 75 % 0 mm
02:45 -6.9 °C -9.6 °C 34395 hPa NNE 2.6 km/h 5.1 km/h 74 % 0 mm
02:55 -6.9 °C -9.7 °C 34395 hPa WSW 2.6 km/h 2.6 km/h 73 % 0 mm
03:05 -6.8 °C -9.4 °C 34395 hPa SW 2.6 km/h 5.1 km/h 74 % 0 mm
03:15 -6.6 °C -9.6 °C 34395 hPa WSW 2.6 km/h 2.6 km/h 71 % 0 mm
03:25 -6.4 °C -9.4 °C 34395 hPa West 5.1 km/h 5.1 km/h 71 % 0 mm
03:35 -6.2 °C -9.3 °C 34428.8 hPa SW 2.6 km/h 5.1 km/h 70 % 0 mm
03:45 -5.8 °C -9.1 °C 34428.8 hPa SW 2.6 km/h 5.1 km/h 69 % 0 mm
03:55 -5.4 °C -9.1 °C 34428.8 hPa SW 5.1 km/h 5.1 km/h 66 % 0 mm
04:05 -5 °C -9 °C 34428.8 hPa Calm   7.7 km/h 64 % 0 mm
04:15 -4.7 °C -8.8 °C 34462.7 hPa Calm   5.1 km/h 63 % 0 mm
04:25 -4.2 °C -8.7 °C 34462.7 hPa SW 2.6 km/h 7.7 km/h 61 % 0 mm
04:35 -4.1 °C -8.7 °C 34462.7 hPa SW 2.6 km/h 10.3 km/h 60 % 0 mm
04:45 -3.7 °C -8.7 °C 34462.7 hPa SW 2.6 km/h 5.1 km/h 57 % 0 mm
04:55 -3.1 °C -8.7 °C 34462.7 hPa South 5.1 km/h 10.3 km/h 54 % 0 mm
05:05 -3.2 °C -8.9 °C 34462.7 hPa SE 5.1 km/h 10.3 km/h 53 % 0 mm
05:15 -3 °C -8.8 °C 34462.7 hPa SSE 2.6 km/h 5.1 km/h 53 % 0 mm
05:25 -2.5 °C -8.8 °C 34462.7 hPa Calm   5.1 km/h 50 % 0 mm
05:35 -2.5 °C -9.3 °C 34462.7 hPa SSE 5.1 km/h 10.3 km/h 47 % 0 mm
05:40 -2.4 °C -9.3 °C 34462.7 hPa SSE 2.6 km/h 7.7 km/h 47 % 0 mm
10:40 -2.3 °C -8.9 °C 34462.7 hPa SE 6 km/h   48 % 0 mm
10:45 -1.9 °C -8.8 °C 34428.8 hPa East 9 km/h 9 km/h 47 % 0 mm
10:50 -2.1 °C -8.9 °C 34428.8 hPa East 9 km/h 9 km/h 47 % 0 mm
10:56 -2 °C -8.7 °C 34462.7 hPa WNW 6 km/h 6 km/h 48 % 0 mm
11:02 -1.9 °C -9 °C 34462.7 hPa NE 6 km/h 6.3 km/h 46 % 0 mm
11:05 -1.7 °C -8.9 °C 34462.7 hPa NNE 9 km/h 9 km/h 45 % 0 mm
11:10 -1.6 °C -8.9 °C 34462.7 hPa NNW 6 km/h 6.8 km/h 45 % 0 mm
11:13 -1.6 °C -8.8 °C 34462.7 hPa North 9 km/h 9 km/h 45 % 0 mm
11:15 -1.5 °C -8.8 °C 34462.7 hPa NE 9 km/h 9 km/h 45 % 0 mm
11:19 -1.8 °C -8.9 °C 34462.7 hPa WSW 9 km/h 9 km/h 46 % 0 mm
11:20 -1.8 °C -9.1 °C 34462.7 hPa SW 6.8 km/h 6.8 km/h 45 % 0 mm
11:23 -1.5 °C -9 °C 34462.7 hPa NNE 3.1 km/h 3.1 km/h 44 % 0 mm
11:25 -1.4 °C -8.9 °C 34462.7 hPa ESE 9.3 km/h 9.3 km/h 44 % 0 mm
11:28 -1.4 °C -9.3 °C 34462.7 hPa NNE 9 km/h 9 km/h 42 % 0 mm
11:30 -1.6 °C -9.5 °C 34462.7 hPa NNW 9 km/h 9 km/h 42 % 0 mm
11:31 -1.6 °C -9.5 °C 34462.7 hPa West 9 km/h 9 km/h 42 % 0 mm
11:36 -1.3 °C -9.2 °C 34462.7 hPa NNE 11.9 km/h 11.9 km/h 42 % 0 mm
11:41 -1.3 °C -9.3 °C 34428.8 hPa East 15 km/h 15 km/h 42 % 0 mm
11:46 -1.1 °C -9.5 °C 34428.8 hPa SE 11.9 km/h 11.9 km/h 40 % 0 mm
11:51 -1.2 °C -9.6 °C 34428.8 hPa NNE 15 km/h 15 km/h 40 % 0 mm
11:56 -1.1 °C -9.5 °C 34428.8 hPa NNE 23.8 km/h 23.8 km/h 40 % 0 mm
12:01 -0.9 °C -9.6 °C 34428.8 hPa NE 15 km/h 15 km/h 39 % 0 mm
12:06 -0.9 °C -9.7 °C 34428.8 hPa ESE 15 km/h 15 km/h 38 % 0 mm
12:11 -0.8 °C -9.6 °C 34395 hPa ENE 15 km/h 15 km/h 38 % 0 mm
12:16 -0.7 °C -9.8 °C 34395 hPa NE 15 km/h 15 km/h 37 % 0 mm
12:21 -0.4 °C -9.6 °C 34395 hPa West 6 km/h 6 km/h 37 % 0 mm
12:26 -0.2 °C -10.1 °C 34395 hPa East 15.6 km/h 15.6 km/h 34 % 0 mm
12:31 -0.4 °C -10 °C 34395 hPa NE 11.9 km/h 11.9 km/h 35 % 0 mm
12:36 -0.1 °C -9.8 °C 34395 hPa ESE 9.3 km/h 11.6 km/h 35 % 0 mm
12:41 0.1 °C -10.1 °C 34395 hPa SE 6 km/h 6 km/h 33 % 0 mm
12:46 0.1 °C -10.4 °C 34395 hPa ENE 16.6 km/h 16.6 km/h 32 % 0 mm
12:51 0.4 °C -9.5 °C 34395 hPa SW 11.9 km/h 11.9 km/h 34 % 0 mm
12:56 0.9 °C -9.9 °C 34395 hPa ESE 10.3 km/h 10.3 km/h 31 % 0 mm
13:01 0.3 °C -10.4 °C 34395 hPa East 23.8 km/h 23.8 km/h 31 % 0 mm
13:06 0.7 °C -10.3 °C 34395 hPa East 19.2 km/h 19.2 km/h 30 % 0 mm
13:11 0.4 °C -10.6 °C 34395 hPa ESE 9 km/h 9 km/h 30 % 0 mm
13:16 0.7 °C -10.7 °C 34395 hPa SSE 15 km/h 15 km/h 29 % 0 mm
13:21 0.6 °C -10.4 °C 34395 hPa ESE 15.3 km/h 15.3 km/h 30 % 0 mm
13:26 0.8 °C -10.2 °C 34395 hPa North 11.9 km/h 11.9 km/h 30 % 0 mm
13:31 0.9 °C -10.8 °C 34395 hPa NE 15 km/h 15 km/h 28 % 0 mm
13:36 0.9 °C -10.4 °C 34395 hPa ESE 15 km/h 15 km/h 29 % 0 mm
13:41 1 °C -10.7 °C 34395 hPa East 22.5 km/h 22.5 km/h 28 % 0 mm
13:46 0.9 °C -10.7 °C 34395 hPa NE 15 km/h 15 km/h 28 % 0 mm
13:51 0.8 °C -11.2 °C 34395 hPa ENE 20.9 km/h 20.9 km/h 27 % 0 mm
13:56 1.2 °C -10.5 °C 34361.1 hPa SSE 15 km/h 15 km/h 28 % 0 mm
14:01 1.3 °C -10.4 °C 34361.1 hPa SE 15 km/h 15 km/h 28 % 0 mm
14:06 1 °C -10.1 °C 34361.1 hPa ESE 26.4 km/h 26.4 km/h 30 % 0 mm
14:11 0.7 °C -9.8 °C 34395 hPa ESE 26.9 km/h 26.9 km/h 32 % 0 mm
14:16 0.9 °C -9.7 °C 34395 hPa SE 20.9 km/h 20.9 km/h 32 % 0 mm
14:21 1 °C -9.6 °C 34395 hPa ENE 29.8 km/h 29.8 km/h 32 % 0 mm
14:26 0.5 °C -9.7 °C 34395 hPa NE 26.9 km/h 26.9 km/h 33 % 0 mm
14:31 0.4 °C -9.8 °C 34395 hPa ESE 20.9 km/h 20.9 km/h 33 % 0 mm
14:36 0.2 °C -10 °C 34395 hPa South 17.9 km/h 17.9 km/h 33 % 0 mm
14:41 0 °C -10.2 °C 34395 hPa ESE 32.8 km/h 32.8 km/h 33 % 0 mm
14:46 -0.1 °C -9.9 °C 34395 hPa SE 20.9 km/h 20.9 km/h 34 % 0 mm
14:51 -0.2 °C -10.1 °C 34395 hPa SE 32.8 km/h 32.8 km/h 34 % 0 mm
14:56 -0.3 °C -10.2 °C 34395 hPa East 23.8 km/h 23.8 km/h 34 % 0 mm
15:01 -0.3 °C -9.9 °C 34395 hPa East 32.8 km/h 32.8 km/h 35 % 0 mm
15:06 -0.1 °C -9.7 °C 34395 hPa East 19.6 km/h 19.6 km/h 35 % 0 mm
15:11 -0.2 °C -9.8 °C 34395 hPa ESE 26.9 km/h 26.9 km/h 35 % 0 mm
15:16 -0.1 °C -9.8 °C 34395 hPa ESE 20.9 km/h 20.9 km/h 35 % 0 mm
15:21 -0.2 °C -9.8 °C 34395 hPa ESE 19.2 km/h 19.2 km/h 35 % 0 mm
15:26 -0.3 °C -9.7 °C 34395 hPa East 23.8 km/h 23.8 km/h 36 % 0 mm
15:31 -0.3 °C -9.7 °C 34395 hPa NE 23.8 km/h 23.8 km/h 36 % 0 mm
15:36 -0.6 °C -9.7 °C 34395 hPa ESE 24.3 km/h 24.3 km/h 37 % 0 mm
15:41 -0.8 °C -9.4 °C 34395 hPa ENE 25.4 km/h 25.4 km/h 39 % 0 mm
15:46 -0.9 °C -9.3 °C 34395 hPa ESE 25.9 km/h 25.9 km/h 40 % 0 mm
15:51 -1.1 °C -9.2 °C 34395 hPa East 26.9 km/h 26.9 km/h 41 % 0 mm
15:56 -1.1 °C -9.2 °C 34395 hPa ESE 29.8 km/h 29.8 km/h 41 % 0 mm
16:01 -1.2 °C -9.1 °C 34395 hPa East 20.9 km/h 20.9 km/h 42 % 0 mm
16:06 -1.4 °C -9.1 °C 34395 hPa SE 29.8 km/h 29.8 km/h 43 % 0 mm
16:11 -1.3 °C -9.1 °C 34395 hPa ESE 26.9 km/h 26.9 km/h 43 % 0 mm
16:16 -1.5 °C -9.2 °C 34395 hPa East 23.8 km/h 23.8 km/h 43 % 0 mm
16:21 -1.4 °C -8.9 °C 34395 hPa ESE 26.9 km/h 26.9 km/h 44 % 0 mm
16:26 -1.3 °C -8.8 °C 34395 hPa East 20.9 km/h 20.9 km/h 44 % 0 mm
16:31 -1.4 °C -9.1 °C 34395 hPa ENE 20.9 km/h 20.9 km/h 43 % 0 mm
16:36 -1.4 °C -9.1 °C 34395 hPa SE 23.8 km/h 23.8 km/h 43 % 0 mm
16:41 -1.4 °C -9.1 °C 34395 hPa SE 17.9 km/h 17.9 km/h 43 % 0 mm
16:46 -1.3 °C -9.3 °C 34395 hPa ESE 20.9 km/h 20.9 km/h 42 % 0 mm
16:51 -1.4 °C -9.3 °C 34395 hPa ESE 17.9 km/h 17.9 km/h 42 % 0 mm
16:56 -1.4 °C -9.7 °C 34395 hPa ESE 23.8 km/h 23.8 km/h 40 % 0 mm
17:01 -1.4 °C -9.8 °C 34395 hPa ESE 17.9 km/h 17.9 km/h 40 % 0 mm
17:06 -1.4 °C -9.7 °C 34395 hPa East 14 km/h 14 km/h 40 % 0 mm
17:11 -1.5 °C -9.8 °C 34361.1 hPa ENE 15.6 km/h 15.6 km/h 40 % 0 mm
17:16 -1.5 °C -9.8 °C 34361.1 hPa East 15.3 km/h 15.3 km/h 40 % 0 mm
17:21 -1.5 °C -10.1 °C 34361.1 hPa ESE 17.9 km/h 17.9 km/h 39 % 0 mm
17:26 -1.6 °C -9.9 °C 34395 hPa ENE 17.9 km/h 17.9 km/h 40 % 0 mm
17:31 -1.6 °C -9.9 °C 34395 hPa ENE 11.9 km/h 11.9 km/h 40 % 0 mm
17:36 -1.6 °C -10.2 °C 34395 hPa ENE 23.8 km/h 23.8 km/h 39 % 0 mm
17:41 -1.7 °C -9.8 °C 34361.1 hPa NE 15 km/h 15 km/h 41 % 0 mm
17:46 -1.7 °C -9.6 °C 34361.1 hPa ESE 11.9 km/h 11.9 km/h 42 % 0 mm
17:51 -1.7 °C -9.4 °C 34361.1 hPa ESE 17.9 km/h 17.9 km/h 43 % 0 mm
17:56 -1.8 °C -9.3 °C 34395 hPa ESE 11.9 km/h 11.9 km/h 44 % 0 mm
18:01 -1.7 °C -9.2 °C 34395 hPa NNE 15 km/h 15 km/h 44 % 0 mm
18:06 -1.9 °C -9.2 °C 34395 hPa East 20.9 km/h 20.9 km/h 45 % 0 mm
18:11 -1.9 °C -9.2 °C 34395 hPa SSE 19.2 km/h 19.2 km/h 45 % 0 mm
18:16 -1.7 °C -9.2 °C 34395 hPa South 15 km/h 15 km/h 44 % 0 mm
18:21 -1.6 °C -9.3 °C 34395 hPa South 9 km/h 9 km/h 43 % 0 mm
18:26 -1.6 °C -9.3 °C 34395 hPa SW 11.9 km/h 11.9 km/h 43 % 0 mm
18:31 -1.7 °C -9.2 °C 34395 hPa WSW 20.9 km/h 20.9 km/h 44 % 0 mm
18:36 -1.8 °C -9.1 °C 34395 hPa South 20.9 km/h 20.9 km/h 45 % 0 mm
18:41 -2 °C -9.3 °C 34395 hPa SW 23.8 km/h 23.8 km/h 45 % 0 mm
18:46 -2.1 °C -9.1 °C 34395 hPa SW 17.9 km/h 17.9 km/h 46 % 0 mm
18:51 -2.1 °C -9.3 °C 34395 hPa WSW 11.9 km/h 11.9 km/h 45 % 0 mm
18:56 -2.1 °C -9.3 °C 34395 hPa SW 16.6 km/h 16.6 km/h 45 % 0 mm
19:01 -2.2 °C -9.6 °C 34395 hPa SSW 23.8 km/h 23.8 km/h 44 % 0 mm
19:06 -2.1 °C -9.6 °C 34395 hPa SW 17.9 km/h 17.9 km/h 44 % 0 mm
19:11 -2.1 °C -9.7 °C 34428.8 hPa WSW 11.9 km/h 11.9 km/h 43 % 0 mm
19:15 -4.3 °C -7.9 °C 34428.8 hPa NNE 7.7 km/h 10.3 km/h 67 % 0 mm
19:16 -1.9 °C -9.8 °C 34428.8 hPa SW 9 km/h 9 km/h 42 % 0 mm
19:21 -1.8 °C -9.9 °C 34428.8 hPa South 15 km/h 15 km/h 41 % 0 mm
19:25 -4.4 °C -8.1 °C 34428.8 hPa NNE 2.6 km/h 7.7 km/h 67 % 0 mm
19:26 -1.8 °C -9.9 °C 34395 hPa SW 15 km/h 15 km/h 41 % 0 mm
19:31 -1.9 °C -10.2 °C 34395 hPa SSW 15 km/h 15 km/h 40 % 0 mm
19:35 -4.5 °C -7.8 °C 34428.8 hPa NE 2.6 km/h 5.1 km/h 69 % 0 mm
19:36 -1.9 °C -10.2 °C 34395 hPa SSW 11.9 km/h 11.9 km/h 40 % 0 mm
19:41 -1.9 °C -10.1 °C 34361.1 hPa SW 7.6 km/h 7.6 km/h 41 % 0 mm
19:45 -4.6 °C -7.8 °C 34395 hPa East 2.6 km/h 5.1 km/h 70 % 0 mm
19:46 -2.1 °C -10.1 °C 34361.1 hPa SW 9 km/h 9 km/h 41 % 0 mm
19:51 -2.1 °C -10.1 °C 34361.1 hPa SSW 6 km/h 6 km/h 41 % 0 mm
19:55 -4.7 °C -7.9 °C 34395 hPa Calm   2.6 km/h 70 % 0 mm
19:56 -2.1 °C -10.2 °C 34395 hPa South 3.7 km/h 3.7 km/h 41 % 0 mm
20:01 -2.2 °C -10.2 °C 34395 hPa Calm     41 % 0 mm
20:05 -4.8 °C -8 °C 34428.8 hPa Calm   2.6 km/h 70 % 0 mm
20:06 -2.2 °C -10.2 °C 34395 hPa ENE 6 km/h 6 km/h 41 % 0 mm
20:11 -2.2 °C -10.3 °C 34395 hPa ENE 6 km/h 6 km/h 41 % 0 mm
20:15 -4.8 °C -8.1 °C 34428.8 hPa NW 5.1 km/h 7.7 km/h 70 % 0 mm
20:16 -2.3 °C -10.3 °C 34395 hPa ENE 12.2 km/h 12.2 km/h 41 % 0 mm
20:21 -2.3 °C -9.9 °C 34395 hPa ESE 14 km/h 14 km/h 43 % 0 mm
20:25 -4.9 °C -7.9 °C 34428.8 hPa NNE 7.7 km/h 7.7 km/h 71 % 0 mm
20:26 -2.4 °C -9.5 °C 34361.1 hPa ENE 12.7 km/h 12.7 km/h 46 % 0 mm
20:31 -2.6 °C -9.1 °C 34361.1 hPa ESE 15 km/h 15 km/h 49 % 0 mm
20:35 -5 °C -8.1 °C 34395 hPa NNE 5.1 km/h 10.3 km/h 71 % 0 mm
20:36 -2.7 °C -8.8 °C 34361.1 hPa ENE 11.9 km/h 11.9 km/h 51 % 0 mm
20:41 -2.7 °C -8.8 °C 34395 hPa North 12.2 km/h 12.2 km/h 51 % 0 mm
20:42 -2.7 °C -8.8 °C 34395 hPa ENE 11.9 km/h 11.9 km/h 51 % 0 mm
20:45 -5.1 °C -8.2 °C 34395 hPa NNE 2.6 km/h 5.1 km/h 71 % 0 mm
20:47 -2.7 °C -8.7 °C 34395 hPa SE 11.1 km/h 11.1 km/h 52 % 0 mm
20:52 -2.8 °C -8.3 °C 34395 hPa East 15 km/h 15 km/h 55 % 0 mm
20:55 -5.2 °C -8.1 °C 34395 hPa Calm   5.1 km/h 72 % 0 mm
20:57 -2.9 °C -8.5 °C 34395 hPa ESE 6 km/h 6 km/h 54 % 0 mm
21:02 -3 °C -8.3 °C 34395 hPa East 9 km/h 9 km/h 56 % 0 mm
21:07 -3.1 °C -8.5 °C 34395 hPa East 8 km/h 8 km/h 55 % 0 mm
21:12 -3.1 °C -8.2 °C 34395 hPa ESE 9 km/h 9 km/h 57 % 0 mm
21:15 -5.3 °C -8.2 °C 34395 hPa Calm   2.6 km/h 72 % 0 mm
21:17 -3.1 °C -8.2 °C 34395 hPa ESE 9 km/h 9 km/h 57 % 0 mm
21:22 -3.2 °C -8.4 °C 34395 hPa ENE 6.8 km/h 6.8 km/h 56 % 0 mm
21:25 -5.4 °C -8.3 °C 34395 hPa Calm     72 % 0 mm
21:27 -3.2 °C -8.3 °C 34395 hPa NNE 6 km/h 6 km/h 57 % 0 mm
21:32 -3.2 °C -8.3 °C 34395 hPa ENE 3.1 km/h 3.1 km/h 57 % 0 mm
21:37 -3.3 °C -8.4 °C 34395 hPa ENE 6 km/h   57 % 0 mm
21:38 -3.3 °C -8.4 °C 34395 hPa East 6 km/h 6 km/h 57 % 0 mm
21:43 -3.3 °C -8.4 °C 34361.1 hPa NNE 9 km/h 9 km/h 57 % 0 mm
21:45 -5.4 °C -8.3 °C 34361.1 hPa Calm   5.1 km/h 73 % 0 mm
21:48 -3.3 °C -8.4 °C 34361.1 hPa ESE 9 km/h 9 km/h 57 % 0 mm
21:53 -3.3 °C -8.3 °C 34361.1 hPa ENE 6.3 km/h 6.3 km/h 58 % 0 mm
21:55 -5.4 °C -8.3 °C 34361.1 hPa NNE 2.6 km/h 5.1 km/h 73 % 0 mm
21:58 -3.4 °C -8.3 °C 34395 hPa SSE 6 km/h 6 km/h 58 % 0 mm
22:03 -3.4 °C -8.2 °C 34395 hPa ESE 9 km/h 9 km/h 59 % 0 mm
22:05 -5.5 °C -8.3 °C 34395 hPa NNW 5.1 km/h 5.1 km/h 73 % 0 mm
22:08 -3.5 °C -8 °C 34395 hPa ESE 14 km/h 14 km/h 61 % 0 mm
22:13 -3.6 °C -8.2 °C 34395 hPa East 8.5 km/h 8.5 km/h 60 % 0 mm
22:15 -5.6 °C -8.3 °C 34395 hPa West 2.6 km/h 5.1 km/h 74 % 0 mm
22:18 -3.7 °C -8.3 °C 34395 hPa ENE 9.3 km/h 9.3 km/h 60 % 0 mm
22:23 -3.7 °C -8 °C 34395 hPa ESE 9 km/h 9 km/h 62 % 0 mm
22:25 -5.6 °C -8.2 °C 34395 hPa Calm   2.6 km/h 75 % 0 mm
22:28 -3.7 °C -8.1 °C 34395 hPa ENE 9 km/h 9 km/h 62 % 0 mm
22:33 -3.8 °C -8.1 °C 34395 hPa East 6 km/h 6 km/h 62 % 0 mm
22:35 -5.6 °C -8.2 °C 34395 hPa NW 5.1 km/h 5.1 km/h 74 % 0 mm
22:38 -3.8 °C -8.2 °C 34395 hPa ENE 6 km/h 6 km/h 62 % 0 mm
22:43 -3.9 °C -8.1 °C 34395 hPa ESE 9 km/h 9 km/h 63 % 0 mm
22:45 -5.7 °C -8.2 °C 34395 hPa Calm   5.1 km/h 75 % 0 mm
22:48 -3.8 °C -8 °C 34395 hPa NNE 6 km/h 6.3 km/h 63 % 0 mm
22:53 -3.8 °C -8.2 °C 34395 hPa NNE 9 km/h 9 km/h 62 % 0 mm
22:55 -5.8 °C -8.3 °C 34395 hPa SE 2.6 km/h 5.1 km/h 75 % 0 mm
22:58 -3.8 °C -8 °C 34395 hPa NNE 9 km/h 9 km/h 63 % 0 mm
22:59 -3.8 °C -8.2 °C 34395 hPa NNE 9 km/h 9 km/h 62 % 0 mm
23:04 -3.8 °C -8 °C 34395 hPa NE 6 km/h 6 km/h 63 % 0 mm
23:05 -5.8 °C -8.3 °C 34395 hPa Calm   2.6 km/h 75 % 0 mm
23:09 -3.9 °C -8.1 °C 34395 hPa NNW 3.1 km/h 3.1 km/h 63 % 0 mm
23:14 -3.9 °C -8.1 °C 34395 hPa Calm     63 % 0 mm
23:15 -5.8 °C -8.3 °C 34395 hPa Calm   2.6 km/h 75 % 0 mm
23:19 -3.9 °C -8 °C 34395 hPa NE 9 km/h 9 km/h 64 % 0 mm
23:24 -4 °C -8.1 °C 34395 hPa NE 11.9 km/h 11.9 km/h 64 % 0 mm
23:25 -5.7 °C -8.5 °C 34395 hPa NNW 5.1 km/h 7.7 km/h 73 % 0 mm
23:29 -4.1 °C -8.1 °C 34395 hPa ENE 9 km/h 9 km/h 64 % 0 mm
23:34 -4.1 °C -8.2 °C 34395 hPa NE 6 km/h 6 km/h 64 % 0 mm
23:35 -5.7 °C -8.7 °C 34395 hPa NNE 2.6 km/h 5.1 km/h 72 % 0 mm
23:39 -4.2 °C -8.1 °C 34395 hPa NNE 15 km/h 15 km/h 65 % 0 mm
23:44 -4.2 °C -8 °C 34395 hPa NNE 15 km/h 15 km/h 66 % 0 mm
23:45 -5.7 °C -9 °C 34395 hPa ENE 5.1 km/h 5.1 km/h 69 % 0 mm
23:49 -4.2 °C -8 °C 34395 hPa NNE 9 km/h 9 km/h 66 % 0 mm
23:54 -4.3 °C -8 °C 34395 hPa NNE 3.7 km/h   66 % 0 mm
23:55 -5.8 °C -9.3 °C 34395 hPa NE 2.6 km/h 7.7 km/h 68 % 0 mm
23:59 -4.3 °C -8 °C 34428.8 hPa ENE 6 km/h 6 km/h 66 % 0 mm
Meteo Sesrovires
Elogis d' Weather Underground - 3.75 mb

Guio original per  Jim McMurry - jmcmurry@mwt.net Adaptat per a la plantilla per  Wim van der Kuil - Leuven-Template.eu

Trobareu la nostra informacio del temps tambe a:

Weather Underground

AWEKAS